Hauptseite
METAR-TAF:

METAR-TAF

Flughäfen :

Schleswig-Jagel, Deutschland

Fliegerhorst Schleswig

Breite: 54-28N, Länge: 009-31E, Höhe: 22 m

Beobachtung

Neuester Wetterbericht von vor 54 Minuten, um 23:20 UTC
Wind 6 kt aus Ost
Temperatur 13°C
Luftfeuchtigkeit 82%
Luftdruck 1008 hPa

METAR: ETNS 272320Z AUTO 09006KT //// // ////// 13/10 Q1008 ///

Zeit: 02:14 (00:14 UTC)

Prognose

Neuester Wetterbericht von vor 9 Stunden und 48 Minuten, um 14:26 UTC
Gültige Prognose vom 27 um 14 UTC bis 27 um 23 UTC
Wind 3 kt aus unterschiedlichen Richtungen
Sichtweite: 1500 m
Aufgelockert bewölkt in der Höhe von 3500 ft
Durchbrochene Bewölkung in der Höhe von 24000 ft

TAF: ETNS 271426Z 2714/2723 VRB03KT 9999 NSW SCT035 BKN240 CANCEL 1500 BY ETGL

Wetterbeobachtungen und Prognosen von mehr als 4000 Flughäfen (METAR und TAF Bericht).

Die verfügbaren Stationen werden durch gelbe und rote Markierungen auf der Karte dargestellt.

Führen Sie die Maus auf sie, um den Namen der Station zu sehen.

Darauf klicken, um die Beobachtung von Wetterbeobachtungen und Prognosen zu sehen.

Um die Karte zu ändern : klicken Sie auf den grünen Tasten mit einem schwarzen Kreuz Zum Vergrößern, auf den grünen Button mit einem Gedankenstrich zu verkleinern, oder auf die grünen Pfeile für benachbarte Karten.


METAR-TAF: